createdAt,value
2016-06-25T00:00:36.461Z,77.81
2016-06-25T00:01:37.039Z,77.42
2016-06-25T00:02:36.416Z,77.9
2016-06-25T00:03:36.415Z,78
2016-06-25T00:04:36.395Z,77.61
2016-06-25T00:05:36.996Z,78.09
2016-06-25T00:06:36.962Z,77.9
2016-06-25T00:07:36.940Z,78
2016-06-25T00:08:36.923Z,78.48
2016-06-25T00:09:36.313Z,78.38
2016-06-25T00:10:36.298Z,78.48
2016-06-25T00:11:36.288Z,78.48
2016-06-25T00:12:36.867Z,79.11
2016-06-25T00:13:36.255Z,79.02
2016-06-25T00:14:36.835Z,79.11
2016-06-25T00:15:36.821Z,78.83
2016-06-25T00:16:36.807Z,78.73
2016-06-25T00:17:36.798Z,79.21
2016-06-25T00:18:36.194Z,79.21
2016-06-25T00:19:36.756Z,79.02
2016-06-25T00:20:36.742Z,79.41
2016-06-25T00:21:36.731Z,79.6
2016-06-25T00:22:36.110Z,79.31
2016-06-25T00:23:36.697Z,79.21
2016-06-25T00:24:36.676Z,79.41
2016-06-25T00:25:36.067Z,79.6
2016-06-25T00:26:36.046Z,79.41
2016-06-25T00:27:36.623Z,79.31
2016-06-25T00:28:36.022Z,79.41
2016-06-25T00:29:35.999Z,79.6
2016-06-25T00:30:36.583Z,79.69
2016-06-25T00:31:36.562Z,79.11
2016-06-25T00:32:36.546Z,79.06
2016-06-25T00:33:36.539Z,79.74
2016-06-25T00:34:36.515Z,79.35
2016-06-25T00:35:36.503Z,79.41
2016-06-25T00:36:35.890Z,79.35
2016-06-25T00:37:35.897Z,79.44
2016-06-25T00:38:35.864Z,79.64
2016-06-25T00:39:35.848Z,79.35
2016-06-25T00:40:36.429Z,79.44
2016-06-25T00:41:36.411Z,79.41
2016-06-25T00:42:35.799Z,80.02
2016-06-25T00:43:35.780Z,80.12
2016-06-25T00:44:36.364Z,79.89
2016-06-25T00:45:35.761Z,79.83
2016-06-25T00:46:35.735Z,79.79
2016-06-25T00:47:35.717Z,79.79
2016-06-25T00:48:36.294Z,79.89
2016-06-25T00:49:35.692Z,79.69
2016-06-25T00:50:36.263Z,79.79
2016-06-25T00:51:35.650Z,79.89
2016-06-25T00:52:36.242Z,79.98
2016-06-25T00:53:36.226Z,79.98
2016-06-25T00:54:36.202Z,79.69
2016-06-25T00:55:35.591Z,79.79
2016-06-25T00:56:35.573Z,79.89
2016-06-25T00:57:36.167Z,79.69
2016-06-25T00:58:36.137Z,80.08
2016-06-25T00:59:36.129Z,79.69
2016-06-25T01:00:36.121Z,80.56
2016-06-25T01:01:36.107Z,80.08
2016-06-25T01:02:35.490Z,80.66
2016-06-25T01:03:36.067Z,80.37
2016-06-25T01:04:36.050Z,80.27
2016-06-25T01:05:36.035Z,80.18
2016-06-25T01:06:36.018Z,80.18
2016-06-25T01:07:35.406Z,80.37
2016-06-25T01:08:35.991Z,80.37
2016-06-25T01:09:35.402Z,80.27
2016-06-25T01:10:35.949Z,80.18
2016-06-25T01:11:35.937Z,80.56
2016-06-25T01:12:35.921Z,80.46
2016-06-25T01:13:35.908Z,80.27
2016-06-25T01:14:35.302Z,80.85
2016-06-25T01:15:35.283Z,80.85
2016-06-25T01:16:35.860Z,80.56
2016-06-25T01:17:35.242Z,80.66
2016-06-25T01:18:35.232Z,81.04
2016-06-25T01:19:35.816Z,80.76
2016-06-25T01:20:35.201Z,80.76
2016-06-25T01:21:35.182Z,80.94
2016-06-25T01:22:35.769Z,80.94
2016-06-25T01:23:35.745Z,81.04
2016-06-25T01:24:35.744Z,80.76
2016-06-25T01:25:35.722Z,81.43
2016-06-25T01:26:35.098Z,81.14
2016-06-25T01:27:35.085Z,81.43
2016-06-25T01:28:35.705Z,81.29
2016-06-25T01:29:35.055Z,81.14
2016-06-25T01:30:35.042Z,81.24
2016-06-25T01:31:35.032Z,81.33
2016-06-25T01:32:35.603Z,81.14
2016-06-25T01:33:34.997Z,81.33
2016-06-25T01:34:34.981Z,81.39
2016-06-25T01:35:35.564Z,81.52
2016-06-25T01:36:35.536Z,80.85
2016-06-25T01:37:35.543Z,81.24
2016-06-25T01:38:35.511Z,81.04
2016-06-25T01:39:34.897Z,81.62
2016-06-25T01:40:35.474Z,80.94
2016-06-25T01:41:35.468Z,81.33
2016-06-25T01:42:35.446Z,81.14
2016-06-25T01:43:35.449Z,81.48
2016-06-25T01:44:35.409Z,81.04
2016-06-25T01:45:34.808Z,81.24
2016-06-25T01:46:35.386Z,80.71
2016-06-25T01:47:34.758Z,80.76
2016-06-25T01:48:34.750Z,80.81
2016-06-25T01:49:34.734Z,80.81
2016-06-25T01:50:35.315Z,80.71
2016-06-25T01:51:34.702Z,80.76
2016-06-25T01:52:35.278Z,80.91
2016-06-25T01:53:35.267Z,80.52
2016-06-25T01:54:35.250Z,81.14
2016-06-25T01:55:35.242Z,81.2
2016-06-25T01:56:34.622Z,81.01
2016-06-25T01:57:35.211Z,81.1
2016-06-25T01:58:34.588Z,80.91
2016-06-25T01:59:34.576Z,80.52
2016-06-25T02:00:34.559Z,81.1
2016-06-25T02:01:34.543Z,80.91
2016-06-25T02:02:34.526Z,80.81
2016-06-25T02:03:35.103Z,81.2
2016-06-25T02:04:35.091Z,81.48
2016-06-25T02:05:34.479Z,80.91
2016-06-25T02:06:34.470Z,81.1
2016-06-25T02:07:35.050Z,80.81
2016-06-25T02:08:35.034Z,81.1
2016-06-25T02:09:35.013Z,80.91
2016-06-25T02:10:34.993Z,80.91
2016-06-25T02:11:34.974Z,81.1
2016-06-25T02:12:34.952Z,81.1
2016-06-25T02:13:34.345Z,81.39
2016-06-25T02:14:34.930Z,80.52
2016-06-25T02:15:34.315Z,81.48
2016-06-25T02:16:34.303Z,81.1
2016-06-25T02:17:34.885Z,80.91
2016-06-25T02:18:34.265Z,81.39
2016-06-25T02:19:34.858Z,81.2
2016-06-25T02:20:34.833Z,81.1
2016-06-25T02:21:34.229Z,81.1
2016-06-25T02:22:34.201Z,80.91
2016-06-25T02:23:34.779Z,80.71
2016-06-25T02:24:34.767Z,81.1
2016-06-25T02:25:34.757Z,81.1
2016-06-25T02:26:34.736Z,81.1
2016-06-25T02:27:34.714Z,80.33
2016-06-25T02:28:34.103Z,81.1
2016-06-25T02:29:34.697Z,81.1
2016-06-25T02:30:34.674Z,81.1
2016-06-25T02:31:34.065Z,81.29
2016-06-25T02:32:34.643Z,81.39
2016-06-25T02:33:34.019Z,81.68
2016-06-25T02:34:34.621Z,82.35
2016-06-25T02:35:34.602Z,81.96
2016-06-25T02:36:34.574Z,81.96
2016-06-25T02:37:33.963Z,82.41
2016-06-25T02:38:34.539Z,82.41
2016-06-25T02:39:33.933Z,82.6
2016-06-25T02:40:34.511Z,82.89
2016-06-25T02:41:33.904Z,82.98
2016-06-25T02:42:34.487Z,82.79
2016-06-25T02:43:34.460Z,82.98
2016-06-25T02:44:33.858Z,82.79
2016-06-25T02:45:33.839Z,82.79
2016-06-25T02:46:33.815Z,82.7
2016-06-25T02:47:34.397Z,82.89
2016-06-25T02:48:34.383Z,82.7
2016-06-25T02:49:34.361Z,83.18
2016-06-25T02:50:33.750Z,82.79
2016-06-25T02:51:33.736Z,83.37
2016-06-25T02:52:33.752Z,83.37
2016-06-25T02:53:33.704Z,83.18
2016-06-25T02:54:34.291Z,82.98
2016-06-25T02:55:34.263Z,83.66
2016-06-25T02:56:34.258Z,83.75
2016-06-25T02:57:34.238Z,83.08
2016-06-25T02:58:34.219Z,83.47
2016-06-25T02:59:33.603Z,82.98
2016-06-25T03:00:33.587Z,83.28
2016-06-25T03:01:33.571Z,83.56
2016-06-25T03:02:33.566Z,83.66
2016-06-25T03:03:33.531Z,83.37
2016-06-25T03:04:33.525Z,83.47
2016-06-25T03:05:33.502Z,83.66
2016-06-25T03:06:34.082Z,83.66
2016-06-25T03:07:34.067Z,83.66
2016-06-25T03:08:34.064Z,83.66
2016-06-25T03:09:34.040Z,83.08
2016-06-25T03:10:33.433Z,82.89
2016-06-25T03:11:33.410Z,82.89
2016-06-25T03:12:33.387Z,83.56
2016-06-25T03:13:33.374Z,83.56
2016-06-25T03:14:33.956Z,83.75
2016-06-25T03:15:33.952Z,83.47
2016-06-25T03:16:33.334Z,83.56
2016-06-25T03:17:34.024Z,83.47
2016-06-25T03:18:33.409Z,83.47
2016-06-25T03:19:33.985Z,83.47
2016-06-25T03:20:33.908Z,83.47
2016-06-25T03:21:33.980Z,83.56
2016-06-25T03:22:33.331Z,83.47
2016-06-25T03:23:33.215Z,84
2016-06-25T03:24:33.787Z,83.91
2016-06-25T03:25:33.194Z,84.48
2016-06-25T03:26:33.751Z,84
2016-06-25T03:27:33.140Z,84.39
2016-06-25T03:28:33.722Z,84.58
2016-06-25T03:29:33.710Z,84.39
2016-06-25T03:30:33.100Z,84.87
2016-06-25T03:31:33.079Z,84.58
2016-06-25T03:32:33.665Z,84.48
2016-06-25T03:33:33.641Z,85.35
2016-06-25T03:34:33.629Z,85.35
2016-06-25T03:35:33.608Z,84.77
2016-06-25T03:36:33.589Z,84.97
2016-06-25T03:37:33.573Z,85.16
2016-06-25T03:38:33.554Z,85.35
2016-06-25T03:39:32.936Z,85.06
2016-06-25T03:40:32.918Z,85.06
2016-06-25T03:41:32.912Z,85.16
2016-06-25T03:42:33.491Z,85.25
2016-06-25T03:43:32.871Z,85.25
2016-06-25T03:44:32.855Z,85.44
2016-06-25T03:45:32.850Z,85.93
2016-06-25T03:46:33.422Z,85.93
2016-06-25T03:47:32.819Z,85.74
2016-06-25T03:48:32.786Z,85.44
2016-06-25T03:49:32.774Z,86.02
2016-06-25T03:50:32.766Z,85.83
2016-06-25T03:51:33.334Z,85.74
2016-06-25T03:52:32.718Z,85.44
2016-06-25T03:53:33.295Z,85.35
2016-06-25T03:54:32.690Z,85.35
2016-06-25T03:55:32.694Z,85.74
2016-06-25T03:56:33.254Z,85.93
2016-06-25T03:57:32.646Z,85.74
2016-06-25T03:58:33.221Z,86.12
2016-06-25T03:59:33.198Z,86.02
2016-06-25T04:00:33.227Z,86.02
2016-06-25T04:01:33.170Z,85.93
2016-06-25T04:02:33.150Z,86.02
2016-06-25T04:03:33.134Z,85.93
2016-06-25T04:04:33.122Z,86.22
2016-06-25T04:05:32.499Z,86.31
2016-06-25T04:06:32.493Z,86.41
2016-06-25T04:07:32.504Z,86.51
2016-06-25T04:08:32.450Z,86.51
2016-06-25T04:09:32.430Z,86.36
2016-06-25T04:10:33.013Z,86.31
2016-06-25T04:11:32.419Z,86.89
2016-06-25T04:12:32.390Z,86.79
2016-06-25T04:13:32.973Z,86.89
2016-06-25T04:14:32.980Z,87.33
2016-06-25T04:15:32.326Z,87.23
2016-06-25T04:16:32.917Z,86.85
2016-06-25T04:17:32.306Z,87.04
2016-06-25T04:18:32.883Z,86.94
2016-06-25T04:19:32.264Z,87.13
2016-06-25T04:20:32.853Z,87.13
2016-06-25T04:21:32.837Z,87.13
2016-06-25T04:22:32.810Z,87.62
2016-06-25T04:23:32.205Z,87.23
2016-06-25T04:24:32.784Z,87.23
2016-06-25T04:25:32.768Z,87.42
2016-06-25T04:26:32.746Z,87.23
2016-06-25T04:27:32.136Z,87.33
2016-06-25T04:28:32.116Z,87.04
2016-06-25T04:29:32.702Z,87.81
2016-06-25T04:30:32.706Z,88
2016-06-25T04:31:32.657Z,87.62
2016-06-25T04:32:32.070Z,87.71
2016-06-25T04:33:32.635Z,87.52
2016-06-25T04:34:32.618Z,88.39
2016-06-25T04:35:32.593Z,88
2016-06-25T04:36:31.973Z,88.1
2016-06-25T04:37:31.954Z,88.29
2016-06-25T04:38:31.952Z,88.1
2016-06-25T04:39:31.926Z,88.39
2016-06-25T04:40:31.914Z,88.57
2016-06-25T04:41:31.891Z,88.57
2016-06-25T04:42:31.877Z,88.48
2016-06-25T04:43:32.458Z,88.57
2016-06-25T04:44:32.443Z,88.67
2016-06-25T04:45:32.417Z,88.39
2016-06-25T04:46:31.809Z,88.29
2016-06-25T04:47:32.390Z,88.57
2016-06-25T04:48:31.771Z,88.67
2016-06-25T04:49:31.759Z,88.96
2016-06-25T04:50:32.336Z,89.44
2016-06-25T04:51:32.321Z,89.25
2016-06-25T04:52:32.319Z,89.35
2016-06-25T04:53:31.688Z,88.77
2016-06-25T04:54:32.272Z,88.96
2016-06-25T04:55:31.649Z,89.06
2016-06-25T04:56:32.233Z,89.35
2016-06-25T04:57:32.219Z,89.54
2016-06-25T04:58:32.192Z,89.54
2016-06-25T04:59:31.583Z,89.54
2016-06-25T05:00:31.575Z,89.35
2016-06-25T05:01:32.143Z,89.25
2016-06-25T05:02:31.539Z,89.25
2016-06-25T05:03:31.521Z,89.44
2016-06-25T05:04:32.096Z,89.35
2016-06-25T05:05:31.479Z,89.54
2016-06-25T05:06:32.065Z,89.15
2016-06-25T05:07:32.041Z,89.64
2016-06-25T05:08:32.030Z,90.12
2016-06-25T05:09:32.019Z,89.83
2016-06-25T05:10:31.397Z,90.02
2016-06-25T05:11:31.377Z,90.12
2016-06-25T05:12:31.363Z,89.83
2016-06-25T05:13:31.356Z,89.54
2016-06-25T05:14:31.937Z,89.73
2016-06-25T05:15:31.916Z,90.02
2016-06-25T05:16:31.906Z,89.73
2016-06-25T05:17:31.319Z,89.64
2016-06-25T05:18:31.859Z,89.64
2016-06-25T05:19:31.244Z,90.21
2016-06-25T05:20:31.228Z,89.83
2016-06-25T05:21:31.215Z,90.02
2016-06-25T05:22:31.187Z,89.73
2016-06-25T05:23:31.786Z,89.73
2016-06-25T05:24:31.768Z,89.92
2016-06-25T05:25:31.142Z,90.41
2016-06-25T05:26:31.125Z,89.92
2016-06-25T05:27:31.706Z,90.02
2016-06-25T05:28:31.091Z,89.73
2016-06-25T05:29:31.107Z,90.02
2016-06-25T05:30:31.054Z,90.02
2016-06-25T05:31:31.647Z,90.31
2016-06-25T05:32:31.622Z,90.31
2016-06-25T05:33:31.012Z,90.12
2016-06-25T05:34:30.992Z,90.21
2016-06-25T05:35:30.977Z,90.31
2016-06-25T05:36:30.963Z,90.41
2016-06-25T05:37:30.951Z,90.41
2016-06-25T05:38:30.922Z,89.92
2016-06-25T05:39:30.902Z,90.41
2016-06-25T05:40:31.491Z,90.5
2016-06-25T05:41:31.474Z,90.89
2016-06-25T05:42:30.852Z,90.89
2016-06-25T05:43:31.431Z,90.59
2016-06-25T05:44:31.419Z,90.79
2016-06-25T05:45:31.406Z,90.5
2016-06-25T05:46:31.399Z,91.27
2016-06-25T05:47:31.361Z,91.08
2016-06-25T05:48:31.348Z,90.98
2016-06-25T05:49:30.741Z,90.79
2016-06-25T05:50:31.311Z,91.46
2016-06-25T05:51:31.296Z,91.46
2016-06-25T05:52:31.290Z,91.46
2016-06-25T05:53:30.674Z,91.36
2016-06-25T05:54:31.255Z,91.08
2016-06-25T05:55:31.233Z,91.27
2016-06-25T05:56:31.217Z,91.66
2016-06-25T05:57:31.194Z,91.17
2016-06-25T05:58:31.182Z,91.94
2016-06-25T05:59:31.160Z,91.36
2016-06-25T06:00:30.560Z,91.46
2016-06-25T06:01:31.131Z,91.85
2016-06-25T06:02:31.099Z,91.85
2016-06-25T06:03:31.108Z,91.27
2016-06-25T06:04:31.080Z,91.46
2016-06-25T06:05:30.467Z,91.17
2016-06-25T06:06:30.456Z,91.66
2016-06-25T06:07:31.019Z,91.75
2016-06-25T06:08:30.410Z,91.85
2016-06-25T06:09:30.394Z,91.85
2016-06-25T06:10:30.370Z,91.66
2016-06-25T06:11:30.358Z,92.33
2016-06-25T06:12:30.943Z,91.85
2016-06-25T06:13:30.922Z,92.71
2016-06-25T06:14:30.303Z,92.52
2016-06-25T06:15:30.292Z,92.33
2016-06-25T06:16:30.260Z,92.52
2016-06-25T06:17:30.858Z,93.05
2016-06-25T06:18:30.239Z,92.67
2016-06-25T06:19:30.220Z,92.47
2016-06-25T06:20:30.803Z,93.24
2016-06-25T06:21:30.195Z,93.1
2016-06-25T06:22:30.186Z,92.86
2016-06-25T06:23:30.157Z,93.15
2016-06-25T06:24:30.148Z,92.96
2016-06-25T06:25:30.117Z,94.01
2016-06-25T06:26:30.698Z,93.63
2016-06-25T06:27:30.080Z,93.73
2016-06-25T06:28:30.662Z,93.73
2016-06-25T06:29:30.647Z,93.34
2016-06-25T06:30:30.035Z,93.63
2016-06-25T06:31:30.617Z,93.53
2016-06-25T06:32:30.596Z,93.91
2016-06-25T06:33:30.582Z,93.73
2016-06-25T06:34:30.564Z,93.82
2016-06-25T06:35:29.956Z,93.73
2016-06-25T06:36:30.530Z,93.82
2016-06-25T06:37:29.920Z,94.01
2016-06-25T06:38:30.491Z,93.91
2016-06-25T06:39:29.869Z,93.63
2016-06-25T06:40:30.446Z,93.63
2016-06-25T06:41:30.426Z,93.63
2016-06-25T06:42:29.822Z,94.01
2016-06-25T06:43:29.807Z,94.01
2016-06-25T06:44:29.803Z,93.73
2016-06-25T06:45:30.374Z,94.21
2016-06-25T06:46:29.756Z,94.78
2016-06-25T06:47:29.737Z,94.49
2016-06-25T06:48:29.730Z,94.68
2016-06-25T06:49:30.299Z,94.49
2016-06-25T06:50:30.339Z,94.78
2016-06-25T06:51:29.680Z,94.49
2016-06-25T06:52:30.265Z,94.49
2016-06-25T06:53:29.636Z,94.59
2016-06-25T06:54:29.645Z,94.59
2016-06-25T06:55:30.355Z,94.11
2016-06-25T06:56:30.170Z,94.4
2016-06-25T06:57:29.566Z,93.91
2016-06-25T06:58:29.554Z,93.82
2016-06-25T06:59:29.535Z,94.11
2016-06-25T07:00:29.528Z,94.21
2016-06-25T07:01:29.522Z,94.11
2016-06-25T07:02:29.483Z,93.82
2016-06-25T07:03:29.473Z,93.82
2016-06-25T07:04:30.052Z,93.73
2016-06-25T07:05:30.032Z,93.73
2016-06-25T07:06:29.415Z,93.63
2016-06-25T07:07:29.405Z,93.82
2016-06-25T07:08:29.419Z,94.01
2016-06-25T07:09:29.359Z,93.82
2016-06-25T07:10:29.365Z,94.01
2016-06-25T07:11:29.365Z,93.91
2016-06-25T07:12:29.906Z,93.91
2016-06-25T07:13:29.904Z,93.44
2016-06-25T07:14:29.888Z,94.01
2016-06-25T07:15:29.867Z,93.91
2016-06-25T07:16:29.836Z,93.73
2016-06-25T07:17:29.260Z,93.73
2016-06-25T07:18:29.208Z,93.73
2016-06-25T07:19:29.785Z,94.01
2016-06-25T07:20:29.773Z,93.91
2016-06-25T07:21:29.747Z,93.82
2016-06-25T07:22:29.725Z,93.53
2016-06-25T07:23:29.758Z,93.44
2016-06-25T07:24:29.090Z,93.73
2016-06-25T07:25:29.080Z,94.01
2016-06-25T07:26:29.069Z,94.21
2016-06-25T07:27:29.048Z,94.78
2016-06-25T07:28:29.637Z,94.4
2016-06-25T07:29:29.610Z,94.3
2016-06-25T07:30:29.003Z,94.45
2016-06-25T07:31:28.978Z,94.16
2016-06-25T07:32:28.972Z,94.64
2016-06-25T07:33:29.597Z,94.83
2016-06-25T07:34:28.917Z,95.12
2016-06-25T07:35:29.530Z,95.21
2016-06-25T07:36:29.707Z,95.03
2016-06-25T07:37:28.943Z,95.03
2016-06-25T07:38:28.863Z,95.03
2016-06-25T07:39:29.434Z,94.98
2016-06-25T07:40:29.419Z,95.21
2016-06-25T07:41:29.402Z,95.17
2016-06-25T07:42:29.399Z,95.26
2016-06-25T07:43:28.778Z,95.45
2016-06-25T07:44:29.561Z,95.45
2016-06-25T07:45:29.717Z,95.36
2016-06-25T07:46:28.758Z,95.5
2016-06-25T07:47:28.703Z,95.89
2016-06-25T07:48:28.679Z,96.08
2016-06-25T07:49:29.269Z,95.79
2016-06-25T07:50:29.253Z,95.7
2016-06-25T07:51:29.226Z,95.7
2016-06-25T07:52:29.204Z,95.5
2016-06-25T07:53:28.594Z,95.79
2016-06-25T07:54:28.579Z,95.31
2016-06-25T07:55:29.158Z,95.21
2016-06-25T07:56:29.140Z,95.12
2016-06-25T07:57:28.529Z,95.21
2016-06-25T07:58:29.104Z,94.83
2016-06-25T07:59:29.097Z,95.12
2016-06-25T08:00:29.066Z,95.12
2016-06-25T08:01:28.454Z,94.93
2016-06-25T08:02:29.033Z,94.54
2016-06-25T08:03:28.416Z,94.64
2016-06-25T08:04:29.174Z,94.54
2016-06-25T08:05:29.068Z,94.73
2016-06-25T08:06:29.092Z,94.64
2016-06-25T08:07:28.373Z,94.64
2016-06-25T08:08:28.941Z,94.35
2016-06-25T08:09:28.317Z,94.83
2016-06-25T08:10:28.321Z,94.73
2016-06-25T08:11:28.883Z,94.64
2016-06-25T08:12:28.868Z,94.64
2016-06-25T08:13:28.847Z,94.45
2016-06-25T08:14:28.824Z,94.64
2016-06-25T08:15:28.810Z,94.73
2016-06-25T08:16:28.201Z,94.54
2016-06-25T08:17:28.175Z,94.45
2016-06-25T08:18:28.751Z,95.12
2016-06-25T08:19:28.740Z,95.12
2016-06-25T08:20:28.720Z,95.03
2016-06-25T08:21:28.103Z,95.03
2016-06-25T08:22:28.113Z,95.03
2016-06-25T08:23:28.107Z,94.83
2016-06-25T08:24:28.053Z,95.03
2016-06-25T08:25:28.667Z,95.12
2016-06-25T08:26:28.685Z,95.31
2016-06-25T08:27:28.603Z,95.79
2016-06-25T08:28:28.577Z,95.89
2016-06-25T08:29:27.974Z,95.79
2016-06-25T08:30:27.945Z,95.5
2016-06-25T08:31:28.524Z,95.7
2016-06-25T08:32:28.546Z,95.5
2016-06-25T08:33:27.898Z,95.7
2016-06-25T08:34:28.476Z,95.98
2016-06-25T08:35:28.484Z,95.79
2016-06-25T08:36:28.448Z,95.7
2016-06-25T08:37:28.420Z,95.79
2016-06-25T08:38:28.401Z,95.89
2016-06-25T08:39:28.384Z,95.7
2016-06-25T08:40:28.368Z,96.17
2016-06-25T08:41:27.751Z,96.08
2016-06-25T08:42:28.338Z,96.27
2016-06-25T08:43:28.317Z,95.89
2016-06-25T08:44:27.700Z,96.47
2016-06-25T08:45:28.279Z,96.08
2016-06-25T08:46:27.668Z,96.08
2016-06-25T08:47:27.654Z,96.17
2016-06-25T08:48:28.225Z,96.27
2016-06-25T08:49:28.214Z,95.89
2016-06-25T08:50:28.188Z,95.79
2016-06-25T08:51:27.581Z,95.7
2016-06-25T08:52:28.159Z,95.5
2016-06-25T08:53:27.558Z,95.5
2016-06-25T08:54:28.121Z,95.89
2016-06-25T08:55:27.510Z,95.89
2016-06-25T08:56:27.485Z,95.6
2016-06-25T08:57:27.475Z,95.89
2016-06-25T08:58:27.463Z,95.89
2016-06-25T08:59:28.034Z,95.31
2016-06-25T09:00:27.423Z,95.4
2016-06-25T09:01:27.406Z,95.4
2016-06-25T09:02:27.383Z,95.5
2016-06-25T09:03:27.967Z,95.5
2016-06-25T09:04:27.943Z,95.4
2016-06-25T09:05:27.919Z,95.89
2016-06-25T09:06:27.315Z,95.89
2016-06-25T09:07:27.893Z,95.89
2016-06-25T09:08:27.870Z,95.6
2016-06-25T09:09:27.263Z,95.4
2016-06-25T09:10:27.242Z,95.79
2016-06-25T09:11:27.221Z,95.7
2016-06-25T09:12:27.802Z,95.5
2016-06-25T09:13:27.194Z,95.89
2016-06-25T09:14:27.170Z,95.5
2016-06-25T09:15:27.151Z,95.6
2016-06-25T09:16:27.137Z,95.98
2016-06-25T09:17:27.716Z,95.7
2016-06-25T09:18:27.107Z,95.89
2016-06-25T09:19:27.679Z,95.6
2016-06-25T09:20:27.066Z,95.89
2016-06-25T09:21:27.667Z,95.98
2016-06-25T09:22:27.027Z,95.89
2016-06-25T09:23:27.011Z,95.79
2016-06-25T09:24:27.612Z,96.37
2016-06-25T09:25:27.604Z,96.17
2016-06-25T09:26:27.560Z,96.17
2016-06-25T09:27:27.546Z,96.08
2016-06-25T09:28:27.520Z,96.37
2016-06-25T09:29:26.902Z,96.27
2016-06-25T09:30:26.920Z,96.37
2016-06-25T09:31:26.886Z,96.27
2016-06-25T09:32:27.453Z,96.56
2016-06-25T09:33:26.835Z,95.98
2016-06-25T09:34:27.428Z,96.37
2016-06-25T09:35:27.403Z,96.17
2016-06-25T09:36:27.371Z,96.17
2016-06-25T09:37:27.411Z,96.37
2016-06-25T09:38:26.760Z,96.17
2016-06-25T09:39:27.329Z,96.08
2016-06-25T09:40:27.309Z,96.17
2016-06-25T09:41:27.297Z,96.37
2016-06-25T09:42:26.678Z,95.6
2016-06-25T09:43:27.252Z,95.7
2016-06-25T09:44:27.237Z,95.89
2016-06-25T09:45:27.227Z,95.89
2016-06-25T09:46:26.611Z,95.98
2016-06-25T09:47:26.585Z,95.5
2016-06-25T09:48:27.197Z,96.17
2016-06-25T09:49:26.575Z,95.89
2016-06-25T09:50:26.538Z,96.17
2016-06-25T09:51:26.511Z,95.98
2016-06-25T09:52:27.098Z,96.56
2016-06-25T09:53:26.497Z,96.17
2016-06-25T09:54:27.068Z,96.47
2016-06-25T09:55:26.449Z,96.47
2016-06-25T09:56:27.029Z,96.27
2016-06-25T09:57:27.034Z,96.37
2016-06-25T09:58:26.394Z,96.17
2016-06-25T09:59:26.394Z,96.37
2016-06-25T10:00:26.965Z,96.56
2016-06-25T10:01:26.369Z,96.37
2016-06-25T10:02:26.933Z,96.37
2016-06-25T10:03:26.311Z,96.56
2016-06-25T10:04:26.908Z,96.47
2016-06-25T10:05:26.868Z,96.17
2016-06-25T10:06:26.259Z,96.47
2016-06-25T10:07:26.846Z,96.13
2016-06-25T10:08:26.818Z,96.42
2016-06-25T10:09:26.804Z,96.17
2016-06-25T10:10:26.788Z,96.47
2016-06-25T10:11:26.763Z,96.37
2016-06-25T10:12:26.142Z,96.47
2016-06-25T10:13:26.743Z,96.08
2016-06-25T10:14:26.724Z,96.08
2016-06-25T10:15:26.711Z,96.56
2016-06-25T10:16:26.680Z,96.37
2016-06-25T10:17:26.659Z,96.17
2016-06-25T10:18:26.641Z,96.17
2016-06-25T10:19:26.031Z,96.75
2016-06-25T10:20:26.008Z,95.98
2016-06-25T10:21:26.623Z,96.75
2016-06-25T10:22:25.980Z,96.56
2016-06-25T10:23:26.571Z,96.75
2016-06-25T10:24:26.543Z,96.94
2016-06-25T10:25:26.529Z,96.75
2016-06-25T10:26:25.917Z,96.85
2016-06-25T10:27:25.892Z,97.04
2016-06-25T10:28:25.867Z,97.04
2016-06-25T10:29:25.975Z,97.52
2016-06-25T10:30:25.833Z,97.52
2016-06-25T10:31:26.414Z,97.66
2016-06-25T10:32:26.399Z,97.47
2016-06-25T10:33:25.784Z,97.33
2016-06-25T10:34:26.361Z,97.76
2016-06-25T10:35:26.350Z,97.57
2016-06-25T10:36:26.327Z,97.28
2016-06-25T10:37:25.729Z,97.38
2016-06-25T10:38:26.294Z,97.47
2016-06-25T10:39:25.676Z,97.38
2016-06-25T10:40:25.658Z,97.19
2016-06-25T10:41:26.242Z,96.99
2016-06-25T10:42:25.630Z,97.57
2016-06-25T10:43:25.607Z,97.57
2016-06-25T10:44:26.187Z,97.61
2016-06-25T10:45:25.573Z,97.52
2016-06-25T10:46:25.556Z,97.42
2016-06-25T10:47:26.134Z,97.42
2016-06-25T10:48:26.115Z,97.14
2016-06-25T10:49:25.502Z,97.42
2016-06-25T10:50:26.094Z,97.33
2016-06-25T10:51:26.063Z,97.42
2016-06-25T10:52:26.440Z,97.61
2016-06-25T10:53:25.442Z,97.71
2016-06-25T10:54:25.407Z,97.91
2016-06-25T10:55:25.994Z,97.91
2016-06-25T10:56:25.377Z,98.1
2016-06-25T10:57:25.357Z,97.42
2016-06-25T10:58:25.939Z,97.81
2016-06-25T10:59:25.927Z,97.71
2016-06-25T11:00:25.906Z,97.91
2016-06-25T11:01:25.885Z,98.33
2016-06-25T11:02:25.865Z,98.62
2016-06-25T11:03:25.258Z,98.58
2016-06-25T11:04:25.234Z,98.29
2016-06-25T11:05:25.225Z,98.24
2016-06-25T11:06:25.802Z,98.67
2016-06-25T11:07:25.178Z,98.96
2016-06-25T11:08:25.778Z,99.15
2016-06-25T11:09:25.745Z,98.96
2016-06-25T11:10:25.129Z,99.05
2016-06-25T11:11:25.731Z,98.96
2016-06-25T11:12:25.730Z,99.05
2016-06-25T11:13:25.083Z,98.96
2016-06-25T11:14:25.071Z,98.67
2016-06-25T11:15:25.641Z,98.96
2016-06-25T11:16:25.626Z,98.96
2016-06-25T11:17:25.016Z,98.58
2016-06-25T11:18:25.575Z,98.48
2016-06-25T11:19:25.580Z,98.29
2016-06-25T11:20:24.968Z,98.29
2016-06-25T11:21:25.547Z,98.67
2016-06-25T11:22:24.929Z,98.58
2016-06-25T11:23:24.896Z,98.58
2016-06-25T11:24:24.884Z,98.96
2016-06-25T11:25:25.474Z,98.67
2016-06-25T11:26:24.852Z,99.15
2016-06-25T11:27:24.835Z,98.86
2016-06-25T11:28:24.824Z,98.58
2016-06-25T11:29:24.814Z,98.38
2016-06-25T11:30:25.383Z,98.48
2016-06-25T11:31:25.365Z,98.58
2016-06-25T11:32:25.347Z,98.67
2016-06-25T11:33:25.336Z,98.67
2016-06-25T11:34:25.309Z,99.05
2016-06-25T11:35:25.290Z,98.96
2016-06-25T11:36:25.268Z,98.86
2016-06-25T11:37:25.257Z,99.05
2016-06-25T11:38:25.237Z,98.77
2016-06-25T11:39:24.621Z,99.44
2016-06-25T11:40:24.606Z,99.54
2016-06-25T11:41:25.183Z,98.77
2016-06-25T11:42:25.171Z,99.54
2016-06-25T11:43:24.551Z,99.25
2016-06-25T11:44:24.531Z,99.54
2016-06-25T11:45:25.109Z,99.25
2016-06-25T11:46:24.510Z,99.3
2016-06-25T11:47:24.498Z,99.82
2016-06-25T11:48:25.056Z,99.68
2016-06-25T11:49:24.447Z,99.25
2016-06-25T11:50:24.425Z,99.2
2016-06-25T11:51:24.408Z,99.92
2016-06-25T11:52:24.998Z,99.58
2016-06-25T11:53:24.986Z,99.34
2016-06-25T11:54:24.957Z,99.25
2016-06-25T11:55:24.338Z,99.58
2016-06-25T11:56:24.921Z,99.58
2016-06-25T11:57:24.304Z,99.54
2016-06-25T11:58:24.848Z,99.44
2016-06-25T11:59:24.294Z,99.25
2016-06-25T12:00:24.847Z,99.54
2016-06-25T12:01:24.231Z,99.34
2016-06-25T12:02:24.813Z,99.63
2016-06-25T12:03:24.210Z,99.73
2016-06-25T12:04:24.177Z,99.99
2016-06-25T12:05:24.812Z,99.99
2016-06-25T12:06:24.752Z,99.92
2016-06-25T12:07:24.131Z,99.99
2016-06-25T12:08:24.733Z,99.99
2016-06-25T12:09:24.093Z,99.44
2016-06-25T12:10:24.667Z,99.92
2016-06-25T12:11:24.659Z,99.58
2016-06-25T12:12:24.044Z,99.99
2016-06-25T12:13:24.614Z,99.92
2016-06-25T12:14:24.591Z,99.63
2016-06-25T12:15:24.597Z,99.99
2016-06-25T12:16:24.566Z,99.92
2016-06-25T12:17:24.539Z,99.99
2016-06-25T12:18:23.930Z,99.63
2016-06-25T12:19:24.518Z,99.99
2016-06-25T12:20:24.489Z,99.63
2016-06-25T12:21:24.479Z,99.99
2016-06-25T12:22:24.454Z,99.73
2016-06-25T12:23:24.493Z,99.54
2016-06-25T12:24:23.839Z,99.99
2016-06-25T12:25:24.406Z,99.99
2016-06-25T12:26:24.386Z,99.99
2016-06-25T12:27:23.768Z,99.99
2016-06-25T12:28:23.746Z,99.99
2016-06-25T12:29:23.767Z,99.92
2016-06-25T12:30:24.318Z,99.99
2016-06-25T12:31:23.688Z,99.99
2016-06-25T12:32:24.287Z,99.92
2016-06-25T12:33:23.656Z,99.99
2016-06-25T12:34:24.244Z,99.92
2016-06-25T12:35:24.231Z,99.99
2016-06-25T12:36:24.207Z,99.99
2016-06-25T12:37:24.187Z,99.92
2016-06-25T12:38:24.161Z,99.92
2016-06-25T12:39:23.556Z,99.99
2016-06-25T12:40:24.129Z,99.99
2016-06-25T12:41:23.515Z,99.99
2016-06-25T12:42:23.500Z,99.99
2016-06-25T12:43:24.107Z,99.99
2016-06-25T12:44:23.483Z,99.99
2016-06-25T12:45:23.451Z,99.99
2016-06-25T12:46:24.031Z,99.99
2016-06-25T12:47:24.005Z,99.99
2016-06-25T12:48:23.996Z,99.99
2016-06-25T12:49:23.391Z,99.99
2016-06-25T12:50:23.971Z,99.92
2016-06-25T12:51:23.931Z,99.99
2016-06-25T12:52:23.324Z,99.99
2016-06-25T12:53:23.931Z,99.99
2016-06-25T12:54:23.878Z,99.92
2016-06-25T12:55:23.273Z,99.99